createdAt,value
2017-12-22T00:01:29.534Z,14.50
2017-12-22T00:03:57.807Z,14.40
2017-12-22T00:06:26.839Z,14.70
2017-12-22T00:08:55.137Z,13.30
2017-12-22T00:11:23.373Z,14.30
2017-12-22T00:13:51.648Z,15.23
2017-12-22T00:16:20.664Z,14.40
2017-12-22T00:18:48.939Z,15.23
2017-12-22T00:21:17.195Z,14.40
2017-12-22T00:23:46.234Z,16.07
2017-12-22T00:26:14.501Z,16.17
2017-12-22T00:28:42.771Z,15.73
2017-12-22T00:31:11.021Z,15.97
2017-12-22T00:33:39.282Z,15.60
2017-12-22T00:36:07.531Z,15.80
2017-12-22T00:38:36.178Z,15.70
2017-12-22T00:41:04.409Z,14.90
2017-12-22T00:43:32.711Z,15.83
2017-12-22T00:46:02.690Z,15.50
2017-12-22T00:48:30.987Z,15.97
2017-12-22T00:50:59.231Z,16.93
2017-12-22T00:53:27.519Z,16.40
2017-12-22T00:55:56.554Z,14.70
2017-12-22T00:58:24.855Z,15.37
2017-12-22T01:00:53.121Z,15.00
2017-12-22T01:03:21.402Z,15.97
2017-12-22T01:05:49.687Z,15.47
2017-12-22T01:08:17.948Z,14.20
2017-12-22T01:10:46.234Z,16.17
2017-12-22T01:13:14.493Z,14.57
2017-12-22T01:15:49.148Z,14.70
2017-12-22T01:18:23.179Z,16.60
2017-12-22T01:20:51.441Z,14.33
2017-12-22T01:23:19.706Z,16.33
2017-12-22T01:25:47.986Z,16.23
2017-12-22T01:28:17.002Z,13.70
2017-12-22T01:30:45.267Z,15.70
2017-12-22T01:33:13.600Z,15.40
2017-12-22T01:35:41.876Z,15.23
2017-12-22T01:38:10.132Z,15.50
2017-12-22T01:40:38.439Z,14.93
2017-12-22T01:43:06.706Z,15.03
2017-12-22T01:45:34.995Z,16.50
2017-12-22T01:48:03.258Z,16.73
2017-12-22T01:50:31.540Z,16.30
2017-12-22T01:52:59.815Z,15.63
2017-12-22T01:55:28.085Z,16.00
2017-12-22T01:57:56.343Z,15.93
2017-12-22T02:00:24.653Z,15.13
2017-12-22T02:02:52.909Z,16.30
2017-12-22T02:05:21.981Z,16.10
2017-12-22T02:07:50.245Z,15.10
2017-12-22T02:10:18.492Z,15.93
2017-12-22T02:12:46.812Z,14.53
2017-12-22T02:15:15.071Z,15.20
2017-12-22T02:17:43.369Z,15.37
2017-12-22T02:20:11.624Z,15.33
2017-12-22T02:22:40.672Z,17.07
2017-12-22T02:25:08.914Z,15.50
2017-12-22T02:27:37.182Z,14.93
2017-12-22T02:30:05.448Z,16.00
2017-12-22T02:32:33.704Z,15.80
2017-12-22T02:35:01.960Z,15.17
2017-12-22T02:37:30.227Z,17.60
2017-12-22T02:39:58.469Z,15.97
2017-12-22T02:42:27.480Z,16.60
2017-12-22T02:44:55.722Z,16.70
2017-12-22T02:47:23.976Z,16.10
2017-12-22T02:49:52.556Z,17.20
2017-12-22T02:52:20.814Z,16.70
2017-12-22T02:54:49.056Z,16.87
2017-12-22T02:57:17.304Z,16.67
2017-12-22T02:59:45.526Z,16.57
2017-12-22T03:02:13.797Z,18.50
2017-12-22T03:04:42.032Z,16.90
2017-12-22T03:07:10.328Z,17.73
2017-12-22T03:09:38.578Z,17.27
2017-12-22T03:12:06.815Z,16.90
2017-12-22T03:14:35.612Z,16.93
2017-12-22T03:17:03.876Z,18.30
2017-12-22T03:19:32.127Z,16.87
2017-12-22T03:22:00.365Z,16.50
2017-12-22T03:24:28.620Z,16.57
2017-12-22T03:26:56.860Z,16.97
2017-12-22T03:29:25.119Z,15.43
2017-12-22T03:31:54.141Z,17.17
2017-12-22T03:34:22.448Z,17.17
2017-12-22T03:36:50.684Z,14.20
2017-12-22T03:39:18.953Z,15.27
2017-12-22T03:41:47.953Z,16.93
2017-12-22T03:44:16.215Z,15.87
2017-12-22T03:46:45.220Z,15.90
2017-12-22T03:49:13.479Z,16.67
2017-12-22T03:51:42.489Z,14.47
2017-12-22T03:54:10.747Z,15.00
2017-12-22T03:56:38.980Z,13.50
2017-12-22T03:59:07.248Z,13.07
2017-12-22T04:01:35.514Z,13.67
2017-12-22T04:04:03.828Z,13.67
2017-12-22T04:06:32.010Z,13.40
2017-12-22T04:09:00.266Z,13.37
2017-12-22T04:11:29.278Z,13.00
2017-12-22T04:16:33.860Z,13.90
2017-12-22T04:19:02.118Z,13.97
2017-12-22T04:21:31.140Z,13.27
2017-12-22T04:23:59.405Z,14.33
2017-12-22T04:26:27.640Z,14.00
2017-12-22T04:28:55.894Z,13.83
2017-12-22T04:31:24.151Z,14.53
2017-12-22T04:33:52.400Z,14.57
2017-12-22T04:36:21.425Z,14.30
2017-12-22T04:38:49.668Z,12.53
2017-12-22T04:41:18.708Z,13.50
2017-12-22T04:43:46.951Z,12.93
2017-12-22T04:46:15.208Z,11.17
2017-12-22T04:48:44.216Z,12.23
2017-12-22T04:51:12.501Z,10.77
2017-12-22T04:53:40.758Z,11.00
2017-12-22T04:56:09.789Z,9.27
2017-12-22T04:58:38.039Z,8.70
2017-12-22T05:01:07.044Z,9.23
2017-12-22T05:03:35.278Z,9.10
2017-12-22T05:06:03.523Z,9.70
2017-12-22T05:08:31.781Z,9.40
2017-12-22T05:11:00.039Z,8.03
2017-12-22T05:13:28.277Z,10.00
2017-12-22T05:15:56.528Z,8.40
2017-12-22T05:18:24.758Z,8.20
2017-12-22T05:20:53.777Z,8.73
2017-12-22T05:23:22.009Z,7.43
2017-12-22T05:25:50.260Z,8.00
2017-12-22T05:28:18.497Z,8.40
2017-12-22T05:30:47.519Z,8.30
2017-12-22T05:33:15.765Z,7.60
2017-12-22T05:35:43.996Z,7.90
2017-12-22T05:38:12.255Z,7.90
2017-12-22T05:40:40.486Z,7.60
2017-12-22T05:43:08.752Z,7.73
2017-12-22T05:45:37.759Z,6.80
2017-12-22T05:48:06.017Z,6.13
2017-12-22T05:50:35.157Z,6.40
2017-12-22T05:53:03.574Z,5.83
2017-12-22T05:55:31.797Z,6.17
2017-12-22T05:58:00.154Z,5.97
2017-12-22T06:00:29.153Z,5.40
2017-12-22T06:02:58.177Z,5.63
2017-12-22T06:05:26.522Z,5.63
2017-12-22T06:07:55.527Z,5.27
2017-12-22T06:10:30.253Z,5.90
2017-12-22T06:12:58.573Z,5.73
2017-12-22T06:21:20.136Z,5.23
2017-12-22T06:23:49.155Z,5.50
2017-12-22T06:26:18.267Z,6.13
2017-12-22T06:28:46.561Z,5.33
2017-12-22T06:31:14.817Z,5.90
2017-12-22T06:33:43.115Z,4.63
2017-12-22T06:36:11.366Z,5.20
2017-12-22T06:38:39.621Z,4.80
2017-12-22T06:41:07.864Z,5.50
2017-12-22T06:43:36.128Z,5.70
2017-12-22T06:46:04.375Z,4.87
2017-12-22T06:48:33.396Z,4.83
2017-12-22T06:51:01.694Z,4.43
2017-12-22T06:53:29.951Z,4.20
2017-12-22T06:55:58.984Z,4.50
2017-12-22T06:58:27.241Z,4.20
2017-12-22T07:00:55.939Z,4.47
2017-12-22T07:03:24.202Z,4.17
2017-12-22T07:05:52.451Z,4.53
2017-12-22T07:08:20.711Z,4.50
2017-12-22T07:10:48.960Z,4.27
2017-12-22T07:13:17.215Z,4.13
2017-12-22T07:15:46.239Z,4.17
2017-12-22T07:18:14.545Z,3.90
2017-12-22T07:20:42.800Z,3.60
2017-12-22T07:23:11.035Z,3.27
2017-12-22T07:25:40.240Z,3.90
2017-12-22T07:28:09.469Z,3.70
2017-12-22T07:30:38.502Z,4.30
2017-12-22T07:33:06.740Z,3.80
2017-12-22T07:35:35.784Z,3.40
2017-12-22T07:38:04.023Z,3.90
2017-12-22T07:40:33.075Z,4.00
2017-12-22T07:43:01.341Z,3.80
2017-12-22T07:45:29.590Z,3.73
2017-12-22T07:47:59.068Z,3.20
2017-12-22T07:50:28.286Z,3.10
2017-12-22T07:52:56.566Z,4.13
2017-12-22T07:55:25.349Z,3.60
2017-12-22T07:57:53.786Z,4.60
2017-12-22T08:00:22.063Z,5.90
2017-12-22T08:02:50.391Z,5.00
2017-12-22T08:05:18.735Z,5.93
2017-12-22T08:07:47.004Z,5.33
2017-12-22T08:10:15.271Z,5.80
2017-12-22T08:12:44.325Z,5.43
2017-12-22T08:15:12.577Z,5.93
2017-12-22T08:17:40.868Z,5.70
2017-12-22T08:20:09.148Z,5.10
2017-12-22T08:22:37.417Z,6.80
2017-12-22T08:25:05.668Z,5.90
2017-12-22T08:27:34.698Z,5.67
2017-12-22T08:30:03.124Z,7.83
2017-12-22T08:32:31.363Z,7.07
2017-12-22T08:34:59.626Z,7.40
2017-12-22T08:37:28.647Z,7.57
2017-12-22T08:39:56.919Z,7.97
2017-12-22T08:42:25.214Z,9.10
2017-12-22T08:44:53.478Z,9.13
2017-12-22T08:47:21.772Z,9.13
2017-12-22T08:49:50.040Z,8.23
2017-12-22T08:52:18.278Z,9.67
2017-12-22T08:54:47.283Z,8.70
2017-12-22T08:57:16.322Z,9.37
2017-12-22T08:59:44.598Z,8.07
2017-12-22T09:02:12.881Z,9.00
2017-12-22T09:04:41.139Z,8.53
2017-12-22T09:07:09.413Z,8.43
2017-12-22T09:09:37.663Z,8.73
2017-12-22T09:12:06.722Z,8.60
2017-12-22T09:14:34.965Z,8.73
2017-12-22T09:17:04.048Z,7.87
2017-12-22T09:19:40.768Z,9.10
2017-12-22T09:22:21.374Z,9.60
2017-12-22T09:24:49.636Z,8.27
2017-12-22T09:27:17.913Z,9.93
2017-12-22T09:29:46.184Z,9.73
2017-12-22T09:32:14.422Z,9.27
2017-12-22T09:34:43.492Z,9.63
2017-12-22T09:37:11.746Z,9.03
2017-12-22T09:39:40.019Z,9.13
2017-12-22T09:42:09.035Z,10.47
2017-12-22T09:44:37.320Z,10.50
2017-12-22T09:47:05.576Z,11.07
2017-12-22T09:49:33.836Z,9.90
2017-12-22T09:52:02.883Z,10.40
2017-12-22T09:54:31.417Z,10.17
2017-12-22T09:57:00.132Z,10.50
2017-12-22T09:59:29.086Z,10.10
2017-12-22T10:01:57.464Z,10.10
2017-12-22T10:04:25.748Z,11.40
2017-12-22T10:06:54.830Z,9.57
2017-12-22T10:09:23.924Z,10.20
2017-12-22T10:11:52.194Z,10.20
2017-12-22T10:14:20.482Z,11.30
2017-12-22T10:16:48.853Z,10.73
2017-12-22T10:19:17.135Z,11.53
2017-12-22T10:21:45.397Z,10.80
2017-12-22T10:24:13.707Z,10.47
2017-12-22T10:26:41.971Z,12.33
2017-12-22T10:29:10.270Z,11.10
2017-12-22T10:31:38.535Z,12.40
2017-12-22T10:34:06.825Z,11.90
2017-12-22T10:36:35.122Z,12.00
2017-12-22T10:39:03.402Z,11.80
2017-12-22T10:41:31.670Z,11.40
2017-12-22T10:43:59.971Z,11.60
2017-12-22T10:46:28.355Z,11.93
2017-12-22T10:48:56.605Z,12.40
2017-12-22T10:51:25.005Z,12.50
2017-12-22T10:53:53.299Z,13.07
2017-12-22T10:56:21.671Z,13.40
2017-12-22T10:58:49.918Z,13.77
2017-12-22T11:01:18.941Z,12.93
2017-12-22T11:03:47.243Z,13.80
2017-12-22T11:06:15.512Z,13.80
2017-12-22T11:08:43.754Z,12.20
2017-12-22T11:11:13.018Z,13.50
2017-12-22T11:13:41.270Z,13.37
2017-12-22T11:16:09.557Z,14.40
2017-12-22T11:18:37.860Z,13.90
2017-12-22T11:21:06.116Z,13.90
2017-12-22T11:23:34.416Z,13.73
2017-12-22T11:26:02.707Z,12.53
2017-12-22T11:28:31.501Z,13.87
2017-12-22T11:30:59.967Z,14.40
2017-12-22T11:33:28.213Z,14.50
2017-12-22T11:35:57.246Z,12.20
2017-12-22T11:38:25.510Z,13.10
2017-12-22T11:40:53.778Z,13.80
2017-12-22T11:43:23.127Z,14.33
2017-12-22T11:45:51.431Z,13.57
2017-12-22T11:48:19.798Z,12.40
2017-12-22T11:50:48.055Z,12.53
2017-12-22T11:53:16.353Z,14.70
2017-12-22T11:55:44.898Z,13.40
2017-12-22T11:58:13.234Z,13.30
2017-12-22T12:00:41.495Z,12.63
2017-12-22T12:03:09.770Z,11.73
2017-12-22T12:05:38.024Z,12.30
2017-12-22T12:08:07.165Z,10.30
2017-12-22T12:10:35.442Z,11.57
2017-12-22T12:13:09.691Z,12.37
2017-12-22T12:15:38.093Z,11.87
2017-12-22T12:18:06.440Z,10.60
2017-12-22T12:20:34.686Z,11.00
2017-12-22T12:23:03.005Z,11.40
2017-12-22T12:25:31.288Z,10.07
2017-12-22T12:27:59.557Z,9.93
2017-12-22T12:30:27.803Z,9.43
2017-12-22T12:32:56.832Z,10.23
2017-12-22T12:35:25.148Z,9.70
2017-12-22T12:37:53.419Z,9.40
2017-12-22T12:40:21.675Z,10.33
2017-12-22T12:42:49.944Z,10.93
2017-12-22T12:45:18.194Z,9.87
2017-12-22T12:47:47.246Z,10.07
2017-12-22T12:50:15.496Z,9.23
2017-12-22T12:52:43.817Z,8.20
2017-12-22T12:55:12.135Z,9.60
2017-12-22T12:57:41.155Z,9.50
2017-12-22T13:00:10.181Z,9.07
2017-12-22T13:02:38.429Z,8.70
2017-12-22T13:05:07.574Z,8.73
2017-12-22T13:07:35.820Z,8.40
2017-12-22T13:10:04.840Z,8.83
2017-12-22T13:12:34.124Z,9.57
2017-12-22T13:15:03.174Z,9.03
2017-12-22T13:17:31.423Z,9.37
2017-12-22T13:19:59.730Z,10.00
2017-12-22T13:22:27.999Z,8.77
2017-12-22T13:24:56.278Z,8.27
2017-12-22T13:27:24.559Z,8.10
2017-12-22T13:29:52.915Z,6.70
2017-12-22T13:32:21.228Z,7.00
2017-12-22T13:34:49.498Z,5.80
2017-12-22T13:37:17.783Z,6.80
2017-12-22T13:39:46.043Z,5.97
2017-12-22T13:42:14.292Z,6.57
2017-12-22T13:44:42.567Z,6.80
2017-12-22T13:47:10.807Z,7.37
2017-12-22T13:49:39.063Z,5.93
2017-12-22T13:52:07.309Z,7.87
2017-12-22T13:54:35.710Z,8.17
2017-12-22T13:57:04.758Z,8.47
2017-12-22T13:59:33.027Z,7.60
2017-12-22T14:02:01.272Z,8.00
2017-12-22T14:04:29.611Z,8.40
2017-12-22T14:06:57.926Z,10.50
2017-12-22T14:09:26.276Z,8.40
2017-12-22T14:11:54.555Z,7.43
2017-12-22T14:14:22.827Z,8.30
2017-12-22T14:16:51.119Z,8.30
2017-12-22T14:19:19.370Z,8.40
2017-12-22T14:21:47.638Z,8.47
2017-12-22T14:24:15.911Z,8.73
2017-12-22T14:26:44.964Z,10.10
2017-12-22T14:29:13.201Z,9.53
2017-12-22T14:31:42.342Z,10.20
2017-12-22T14:34:10.598Z,10.30
2017-12-22T14:36:38.863Z,9.40
2017-12-22T14:39:07.882Z,9.63
2017-12-22T14:41:36.155Z,9.70
2017-12-22T14:44:04.470Z,9.07
2017-12-22T14:46:32.735Z,7.60
2017-12-22T14:49:00.982Z,6.97
2017-12-22T14:51:30.012Z,8.00
2017-12-22T14:53:58.257Z,6.80
2017-12-22T14:56:27.287Z,6.70
2017-12-22T14:58:55.586Z,6.63
2017-12-22T15:01:23.854Z,7.07
2017-12-22T15:03:52.117Z,6.47
2017-12-22T15:06:20.440Z,7.60
2017-12-22T15:08:48.684Z,7.37
2017-12-22T15:11:16.990Z,7.43
2017-12-22T15:13:45.248Z,7.77
2017-12-22T15:16:13.557Z,7.40
2017-12-22T15:18:41.834Z,7.00
2017-12-22T15:21:10.080Z,7.27
2017-12-22T15:23:39.112Z,7.23
2017-12-22T15:26:07.365Z,5.80
2017-12-22T15:28:35.628Z,6.70
2017-12-22T15:31:04.692Z,6.37
2017-12-22T15:33:32.991Z,5.57
2017-12-22T15:36:01.254Z,5.40
2017-12-22T15:38:29.507Z,6.90
2017-12-22T15:40:57.743Z,6.30
2017-12-22T15:43:26.798Z,5.90
2017-12-22T15:45:55.083Z,5.70
2017-12-22T15:48:23.353Z,6.83
2017-12-22T15:50:51.598Z,6.63
2017-12-22T15:53:20.622Z,6.13
2017-12-22T15:55:48.911Z,6.07
2017-12-22T15:58:17.194Z,6.60
2017-12-22T16:00:45.448Z,6.40
2017-12-22T16:03:13.705Z,5.80
2017-12-22T16:05:43.470Z,5.33
2017-12-22T16:08:11.731Z,6.13
2017-12-22T16:10:40.482Z,6.67
2017-12-22T16:13:08.750Z,6.00
2017-12-22T16:15:36.993Z,7.30
2017-12-22T16:18:05.259Z,7.03
2017-12-22T16:20:33.550Z,6.07
2017-12-22T16:23:01.855Z,6.00
2017-12-22T16:25:30.118Z,6.60
2017-12-22T16:27:58.369Z,6.73
2017-12-22T16:30:27.399Z,6.17
2017-12-22T16:32:55.647Z,5.90
2017-12-22T16:35:24.693Z,6.33
2017-12-22T16:37:52.938Z,5.97
2017-12-22T16:40:21.980Z,7.03
2017-12-22T16:42:50.251Z,6.07
2017-12-22T16:45:18.502Z,6.30
2017-12-22T16:47:46.751Z,5.70
2017-12-22T16:50:15.027Z,6.10
2017-12-22T16:52:43.272Z,5.70
2017-12-22T16:55:11.567Z,5.90
2017-12-22T16:57:39.943Z,6.20
2017-12-22T17:00:08.208Z,6.20
2017-12-22T17:02:36.458Z,6.40
2017-12-22T17:05:05.482Z,6.83
2017-12-22T17:07:33.778Z,6.63
2017-12-22T17:10:02.061Z,7.60
2017-12-22T17:12:30.338Z,7.40
2017-12-22T17:14:58.605Z,6.90
2017-12-22T17:17:26.904Z,6.77
2017-12-22T17:19:55.171Z,6.80
2017-12-22T17:22:23.486Z,7.00
2017-12-22T17:24:51.755Z,6.43
2017-12-22T17:27:20.054Z,7.60
2017-12-22T17:29:48.326Z,6.67
2017-12-22T17:32:16.578Z,7.10
2017-12-22T17:34:44.885Z,6.67
2017-12-22T17:37:13.183Z,6.80
2017-12-22T17:39:41.421Z,6.77
2017-12-22T17:42:09.675Z,7.07
2017-12-22T17:44:38.712Z,7.73
2017-12-22T17:47:06.995Z,6.90
2017-12-22T17:49:35.251Z,7.57
2017-12-22T17:52:03.563Z,7.77
2017-12-22T17:54:31.851Z,6.87
2017-12-22T17:57:00.102Z,7.67
2017-12-22T17:59:28.417Z,9.65
2017-12-22T18:01:56.702Z,9.47
2017-12-22T18:04:25.811Z,9.00
2017-12-22T18:06:53.835Z,8.30
2017-12-22T18:09:21.847Z,9.20
2017-12-22T18:11:49.866Z,8.60
2017-12-22T18:14:17.878Z,9.13
2017-12-22T18:16:46.688Z,8.70
2017-12-22T18:19:15.450Z,9.10
2017-12-22T18:21:43.566Z,9.70
2017-12-22T18:24:11.838Z,8.40
2017-12-22T18:26:40.261Z,9.20
2017-12-22T18:29:08.608Z,8.90
2017-12-22T18:31:36.896Z,9.33
2017-12-22T18:34:05.183Z,9.90
2017-12-22T18:36:33.536Z,10.03
2017-12-22T18:39:02.582Z,11.30
2017-12-22T18:41:30.953Z,13.10
2017-12-22T18:43:59.250Z,14.00
2017-12-22T18:46:27.606Z,16.27
2017-12-22T18:48:55.882Z,14.23
2017-12-22T18:51:24.181Z,12.23
2017-12-22T18:53:52.555Z,12.60
2017-12-22T18:56:20.818Z,11.93
2017-12-22T18:58:49.087Z,11.43
2017-12-22T19:01:17.475Z,11.63
2017-12-22T19:03:45.795Z,11.70
2017-12-22T19:06:14.050Z,11.87
2017-12-22T19:08:42.323Z,11.80
2017-12-22T19:11:10.631Z,11.57
2017-12-22T19:13:38.928Z,12.73
2017-12-22T19:16:07.294Z,11.07
2017-12-22T19:18:35.578Z,11.30
2017-12-22T19:21:03.839Z,11.53
2017-12-22T19:23:32.122Z,11.47
2017-12-22T19:26:00.410Z,12.00
2017-12-22T19:28:28.690Z,10.90
2017-12-22T19:30:56.975Z,11.37
2017-12-22T19:33:25.274Z,11.60
2017-12-22T19:35:53.515Z,11.23
2017-12-22T19:38:21.812Z,12.43
2017-12-22T19:40:50.079Z,12.70
2017-12-22T19:43:18.342Z,14.27
2017-12-22T19:45:47.671Z,12.90
2017-12-22T19:48:15.967Z,14.30
2017-12-22T19:50:44.243Z,13.77
2017-12-22T19:53:12.498Z,13.70
2017-12-22T19:55:40.818Z,14.13
2017-12-22T19:58:09.094Z,14.70
2017-12-22T20:00:37.372Z,13.43
2017-12-22T20:03:17.561Z,14.20
2017-12-22T20:05:46.649Z,14.20
2017-12-22T20:08:14.906Z,14.17
2017-12-22T20:10:43.183Z,15.50
2017-12-22T20:13:11.922Z,14.43
2017-12-22T20:15:40.177Z,14.20
2017-12-22T20:18:08.459Z,13.33
2017-12-22T20:20:36.730Z,14.07
2017-12-22T20:23:05.021Z,14.73
2017-12-22T20:25:33.307Z,14.30
2017-12-22T20:28:01.570Z,14.03
2017-12-22T20:30:29.870Z,15.07
2017-12-22T20:32:58.183Z,15.20
2017-12-22T20:35:26.481Z,15.10
2017-12-22T20:37:54.740Z,15.50
2017-12-22T20:40:23.011Z,14.20
2017-12-22T20:42:51.274Z,14.20
2017-12-22T20:45:19.571Z,14.23
2017-12-22T20:47:47.834Z,13.20
2017-12-22T20:50:16.108Z,14.73
2017-12-22T20:52:45.143Z,13.43
2017-12-22T20:55:13.419Z,13.40
2017-12-22T20:57:41.694Z,12.90
2017-12-22T21:00:10.010Z,13.90
2017-12-22T21:02:38.226Z,13.00
2017-12-22T21:05:07.259Z,12.30
2017-12-22T21:07:35.524Z,12.87
2017-12-22T21:10:03.800Z,12.33
2017-12-22T21:12:32.063Z,12.20
2017-12-22T21:15:01.099Z,16.30
2017-12-22T21:17:29.365Z,16.00
2017-12-22T21:19:57.646Z,14.97
2017-12-22T21:22:25.913Z,14.40
2017-12-22T21:24:54.949Z,13.77
2017-12-22T21:27:23.343Z,13.97
2017-12-22T21:29:51.642Z,13.50
2017-12-22T21:32:20.003Z,12.83
2017-12-22T21:34:48.274Z,11.87
2017-12-22T21:37:16.543Z,11.50
2017-12-22T21:39:44.817Z,12.20
2017-12-22T21:42:13.069Z,10.40
2017-12-22T21:44:42.095Z,12.03
2017-12-22T21:47:10.363Z,9.80
2017-12-22T21:49:38.611Z,9.87
2017-12-22T21:52:06.954Z,10.00
2017-12-22T21:54:35.206Z,10.50
2017-12-22T21:57:03.487Z,9.50
2017-12-22T21:59:31.738Z,9.93
2017-12-22T22:02:00.086Z,10.17
2017-12-22T22:04:28.363Z,10.33
2017-12-22T22:06:56.630Z,9.40
2017-12-22T22:09:24.886Z,10.67
2017-12-22T22:11:54.558Z,12.07
2017-12-22T22:14:22.790Z,11.27
2017-12-22T22:16:51.055Z,9.87
2017-12-22T22:19:20.100Z,11.97
2017-12-22T22:21:48.379Z,12.90
2017-12-22T22:24:16.635Z,13.30
2017-12-22T22:26:44.896Z,14.07
2017-12-22T22:29:13.922Z,15.77
2017-12-22T22:31:42.189Z,15.03
2017-12-22T22:34:10.446Z,15.63
2017-12-22T22:36:38.715Z,14.20
2017-12-22T22:39:06.973Z,13.70
2017-12-22T22:41:35.239Z,15.83
2017-12-22T22:44:03.534Z,16.13
2017-12-22T22:46:31.810Z,16.40
2017-12-22T22:49:00.089Z,16.17
2017-12-22T22:51:28.334Z,15.50
2017-12-22T22:53:56.618Z,14.97
2017-12-22T22:56:25.658Z,17.93
2017-12-22T22:58:53.937Z,14.57
2017-12-22T23:01:22.182Z,13.83
2017-12-22T23:03:50.448Z,12.60
2017-12-22T23:06:19.524Z,13.93
2017-12-22T23:08:47.774Z,13.33
2017-12-22T23:11:16.037Z,13.40
2017-12-22T23:13:44.317Z,12.97
2017-12-22T23:16:12.566Z,14.00
2017-12-22T23:18:41.608Z,13.43
2017-12-22T23:21:09.869Z,13.10
2017-12-22T23:23:38.130Z,13.57
2017-12-22T23:26:07.153Z,13.80
2017-12-22T23:28:35.434Z,12.73
2017-12-22T23:31:03.674Z,13.00
2017-12-22T23:33:31.931Z,12.33
2017-12-22T23:36:00.197Z,14.00
2017-12-22T23:38:28.460Z,13.53
2017-12-22T23:40:56.714Z,12.13
2017-12-22T23:43:25.758Z,12.00
2017-12-22T23:45:54.013Z,12.17
2017-12-22T23:48:22.286Z,15.10
2017-12-22T23:50:50.614Z,13.20
2017-12-22T23:53:18.975Z,13.30
2017-12-22T23:55:47.234Z,13.10
2017-12-22T23:58:15.515Z,12.57
